Arriaga, Mexico

12:41 AM CDT on October 23, 2014 (GMT -0500)
Francisco Sarabia | Change Station
CLOSE
Current Station
Airport
Location: Tuxtla Gutierrez,
Elevation: 1516 ft
Nearby Weather Stations

Elev 1516 ft 16.56 °N, 93.03 °W | Updated 54 minutes ago

Light Drizzle
Light Drizzle
72 °F
Feels Like 72 °F
N
0
Wind Variable Wind from North

Today
High -- | Low -- °F
--% Chance of Precip.
Yesterday
High -- | Low -- °F
Precip. -- in
7:09 AM 6:49 PM
Waning Crescent, 0% visible
Pressure 29.91 in
Visibility 4.0 miles
Clouds Scattered Clouds 500 ft
Mostly Cloudy 1000 ft
Overcast 7000 ft
Dew Point 72 °F
Humidity 100%
Rainfall 2.75 in
Snow Depth Not available.
UV 0 out of 12
Pollen Not available.
Air Quality Not available.
Flu Activity Not available.
METAR MMTG 230447Z 00000KT 4SM -DZ SCT005 BKN010 OVC070 22/22 A2991 RMK 60035 8/77/ -DZ CONT BCFG ARND

More Conditions Fewer Conditions

Pressure 29.91 in
Visibility 4.0 miles
Clouds Scattered Clouds 500 ft
Mostly Cloudy 1000 ft
Overcast 7000 ft
Dew Point 72 °F
Humidity 100%
Rainfall 2.75 in
Snow Depth Not available.
UV 0 out of 12
Pollen Not available.
Air Quality Not available.
Flu Activity Not available.
METAR MMTG 230447Z 00000KT 4SM -DZ SCT005 BKN010 OVC070 22/22 A2991 RMK 60035 8/77/ -DZ CONT BCFG ARND

More Conditions Fewer Conditions

10-Day Weather Forecast

Almanac

Astronomy

Oct. 23, 2014 Rise Set
Actual Time 7:09 AM CDT 6:49 PM CDT
Civil Twilight 6:47 AM CDT 7:11 PM CDT
Nautical Twilight 6:22 AM CDT 7:36 PM CDT
Astronomical Twilight 5:57 AM CDT 8:02 PM CDT
Moon 6:53 AM CDT 6:51 PM CDT
Length of Visible Light 12h 23m
Length of Day
11h 39m
Tomorrow will be 0m 49s shorter.
Waning Crescent, 0% of the Moon is Illuminated
Today
Waning Crescent
Oct 23
New
Oct 30
First Quarter
Nov 6
Full
Nov 14
Last Quarter

Yesterday's Extremes

Country Highs Country Lows

Community

WunderPhotos

Upload Photos

1,764,188 photos uploaded!

Nearby

Snow Depth

Not available.

Earthquake Activity

City Distance Mag. Time & Date
No recent earthquake activity has been reported nearby.
Minimum magnitude displayed is 2.5.

Coastal Water Temperatures

Place Temperature
No Stations Reporting

Nearby Weather Stations